Wasilla Airport Wasilla US
ICAO: PAWS
IATA:
Category: Medium
Scheduled Services:

Elevation: 354 ft
TransAlt. 18000 ft.

Airport Communications:
ANCHORAGE APP/DEP:119.1
AWOS 3:135.25
CTAF:122.8

PAWS Zoom In..

If you have problems with the map follow the link
https://www.worldairports.se/pages/airport.php?
ICAO=PAWS

Runways:

(A) RW 03 length 3700 ft width 75 ft
---- / hdg 33

(B) RW 03L length 1690 ft width 60 ft
---- / hdg 33

(C) RW 21 length 3700 ft width 75 ft
---- / hdg 213

(D) RW 21R length 1690 ft width 60 ft
---- / hdg 213

Location; PAWS
Day. 08 / Time. 18.56 Zulu
* Altimeter: 29.79
* Temperature: 00° c. 32°f.
* Wind from: 100° Speed 03 kn.
Dewpoint: -01° c.
Visibility: 10 Statute Miles.
Clouds: Broken 3700 ft.
Clouds: Broken 7000 ft.

PAWS 081856Z AUTO 10003KT 10SM BKN037 BKN070 00/M01 A2979 RMK AO2 SLP094 T00001011 FZRANO


Wind From 100°
Speed 03 kn.

 
 
jpsmedia worldairports.se 2019   terms of use